createdAt,value
2023-03-06T00:00:18.946Z,99260.18
2023-03-06T00:02:24.066Z,99263.31
2023-03-06T00:04:29.481Z,99259.11
2023-03-06T00:06:34.956Z,99259.5
2023-03-06T00:08:40.389Z,99257.58
2023-03-06T00:10:46.860Z,99257.16
2023-03-06T00:12:52.067Z,99260.55
2023-03-06T00:14:57.356Z,99253.02
2023-03-06T00:17:02.540Z,99253.09
2023-03-06T00:19:07.727Z,99255.42
2023-03-06T00:21:13.037Z,99253.56
2023-03-06T00:23:19.695Z,99257.02
2023-03-06T00:25:25.025Z,99250.44
2023-03-06T00:27:30.318Z,99250.78
2023-03-06T00:29:35.742Z,99248.94
2023-03-06T00:31:41.133Z,99247.98
2023-03-06T00:33:47.128Z,99245.33
2023-03-06T00:35:52.650Z,99246.06
2023-03-06T00:37:58.267Z,99247.69
2023-03-06T00:40:03.448Z,99245.97
2023-03-06T00:42:08.943Z,99247.5
2023-03-06T00:44:14.204Z,99249.39
2023-03-06T00:46:19.694Z,99243
2023-03-06T00:48:25.077Z,99244.72
2023-03-06T00:50:30.338Z,99243.2
2023-03-06T00:52:35.693Z,99239.98
2023-03-06T00:54:40.866Z,99244.5
2023-03-06T00:56:46.058Z,99239.97
2023-03-06T00:58:51.464Z,99240.95
2023-03-06T01:00:57.802Z,99244.98
2023-03-06T01:03:03.859Z,99243.27
2023-03-06T01:05:09.264Z,99247.44
2023-03-06T01:07:14.563Z,99247.06
2023-03-06T01:09:19.792Z,99243.3
2023-03-06T01:11:24.950Z,99241.8
2023-03-06T01:13:30.134Z,99239.95
2023-03-06T01:15:35.219Z,99237.89
2023-03-06T01:17:40.686Z,99234.28
2023-03-06T01:19:45.846Z,99232.01
2023-03-06T01:21:52.222Z,99232.08
2023-03-06T01:23:57.538Z,99236.09
2023-03-06T01:26:02.836Z,99235.3
2023-03-06T01:28:08.146Z,99227.7
2023-03-06T01:30:13.657Z,99231.27
2023-03-06T01:32:19.240Z,99233.11
2023-03-06T01:34:24.652Z,99229.97
2023-03-06T01:36:29.975Z,99232.8
2023-03-06T01:38:35.120Z,99231.78
2023-03-06T01:40:40.564Z,99230.49
2023-03-06T01:42:48.088Z,99231.52
2023-03-06T01:44:53.492Z,99230.89
2023-03-06T01:46:59.001Z,99230.13
2023-03-06T01:49:04.202Z,99225.58
2023-03-06T01:51:09.408Z,99226.29
2023-03-06T01:53:14.757Z,99223.59
2023-03-06T01:55:20.031Z,99224.11
2023-03-06T01:57:25.506Z,99221.09
2023-03-06T01:59:31.003Z,99214.42
2023-03-06T02:01:36.387Z,99217.92
2023-03-06T02:03:42.625Z,99211.19
2023-03-06T02:05:48.025Z,99215.56
2023-03-06T02:07:53.219Z,99217.95
2023-03-06T02:09:58.710Z,99219.95
2023-03-06T02:12:03.950Z,99220.13
2023-03-06T02:14:09.427Z,99214.67
2023-03-06T02:16:14.802Z,99216.03
2023-03-06T02:18:20.097Z,99216.69
2023-03-06T02:20:25.422Z,99216.67
2023-03-06T02:22:30.781Z,99212.27
2023-03-06T02:24:35.951Z,99214.01
2023-03-06T02:26:41.213Z,99213.55
2023-03-06T02:28:46.450Z,99215.88
2023-03-06T02:30:52.063Z,99216.11
2023-03-06T02:32:57.784Z,99213.63
2023-03-06T02:35:03.002Z,99213.77
2023-03-06T02:37:08.156Z,99215.39
2023-03-06T02:39:13.441Z,99209.72
2023-03-06T02:41:18.718Z,99212.81
2023-03-06T02:43:23.821Z,99213.88
2023-03-06T02:45:29.046Z,99212.21
2023-03-06T02:47:34.504Z,99213.2
2023-03-06T02:49:39.868Z,99214.48
2023-03-06T02:51:45.448Z,99208.26
2023-03-06T02:53:50.579Z,99211.41
2023-03-06T02:55:56.206Z,99211.31
2023-03-06T02:58:01.619Z,99213.09
2023-03-06T03:00:06.819Z,99215.89
2023-03-06T03:02:11.977Z,99214.31
2023-03-06T03:04:17.573Z,99219.73
2023-03-06T03:06:23.083Z,99215.27
2023-03-06T03:08:28.405Z,99214.67
2023-03-06T03:10:33.816Z,99214.78
2023-03-06T03:12:39.052Z,99212.91
2023-03-06T03:14:44.105Z,99214.01
2023-03-06T03:16:49.313Z,99215.13
2023-03-06T03:18:54.430Z,99207.8
2023-03-06T03:20:59.697Z,99211.94
2023-03-06T03:23:04.887Z,99208.05
2023-03-06T03:25:10.035Z,99209.64
2023-03-06T03:27:15.179Z,99209.22
2023-03-06T03:29:20.292Z,99209.84
2023-03-06T03:31:25.549Z,99207.44
2023-03-06T03:33:30.822Z,99207.83
2023-03-06T03:35:39.095Z,99202.77
2023-03-06T03:37:44.211Z,99205.89
2023-03-06T03:39:49.675Z,99202.2
2023-03-06T03:41:55.220Z,99201.73
2023-03-06T03:44:00.521Z,99203.6
2023-03-06T03:46:05.969Z,99202.62
2023-03-06T03:48:11.582Z,99199.49
2023-03-06T03:50:16.818Z,99200.12
2023-03-06T03:52:21.848Z,99196.69
2023-03-06T03:54:27.413Z,99195.91
2023-03-06T03:56:32.570Z,99191.73
2023-03-06T03:58:37.939Z,99192.34
2023-03-06T04:00:42.909Z,99194.43
2023-03-06T04:02:48.290Z,99197.14
2023-03-06T04:04:53.666Z,99197.69
2023-03-06T04:06:59.339Z,99195.3
2023-03-06T04:09:04.555Z,99197.59
2023-03-06T04:11:10.026Z,99193.5
2023-03-06T04:13:16.340Z,99194.38
2023-03-06T04:15:21.571Z,99193.86
2023-03-06T04:17:26.852Z,99192.75
2023-03-06T04:19:32.027Z,99198.37
2023-03-06T04:21:38.323Z,99189.44
2023-03-06T04:23:43.708Z,99192.64
2023-03-06T04:25:48.912Z,99192.5
2023-03-06T04:27:54.130Z,99190.97
2023-03-06T04:30:00.380Z,99192.38
2023-03-06T04:32:05.749Z,99197.58
2023-03-06T04:34:11.255Z,99199.68
2023-03-06T04:36:16.341Z,99194.84
2023-03-06T04:38:21.696Z,99192.41
2023-03-06T04:40:26.859Z,99194.88
2023-03-06T04:42:32.501Z,99193.16
2023-03-06T04:44:37.865Z,99188.05
2023-03-06T04:46:43.153Z,99190.11
2023-03-06T04:48:48.279Z,99185.14
2023-03-06T04:50:53.805Z,99183.86
2023-03-06T04:52:59.130Z,99178.18
2023-03-06T04:55:04.881Z,99180.74
2023-03-06T04:57:10.144Z,99174.27
2023-03-06T04:59:15.322Z,99173.16
2023-03-06T05:01:20.672Z,99170.27
2023-03-06T05:03:26.237Z,99176.51
2023-03-06T05:05:31.549Z,99175.23
2023-03-06T05:07:36.798Z,99178.09
2023-03-06T05:09:42.264Z,99177.75
2023-03-06T05:11:47.476Z,99177.98
2023-03-06T05:13:52.935Z,99182.45
2023-03-06T05:15:58.337Z,99182.95
2023-03-06T05:18:03.692Z,99181
2023-03-06T05:20:08.903Z,99182
2023-03-06T05:22:14.235Z,99180.52
2023-03-06T05:24:19.660Z,99177.58
2023-03-06T05:26:24.879Z,99181.73
2023-03-06T05:28:30.148Z,99172.78
2023-03-06T05:30:35.546Z,99174.62
2023-03-06T05:32:41.127Z,99172.36
2023-03-06T05:34:46.712Z,99175.42
2023-03-06T05:36:52.101Z,99175.36
2023-03-06T05:38:57.559Z,99179.48
2023-03-06T05:41:03.153Z,99179.33
2023-03-06T05:43:08.318Z,99178.21
2023-03-06T05:45:13.522Z,99183
2023-03-06T05:47:18.976Z,99180.46
2023-03-06T05:49:24.432Z,99182.83
2023-03-06T05:51:29.607Z,99182.52
2023-03-06T05:53:35.016Z,99187.3
2023-03-06T05:55:40.837Z,99183.71
2023-03-06T05:57:46.275Z,99190.7
2023-03-06T05:59:51.694Z,99191.53
2023-03-06T06:01:57.282Z,99186.92
2023-03-06T06:04:02.897Z,99192.95
2023-03-06T06:06:08.137Z,99185.75
2023-03-06T06:08:13.385Z,99183.68
2023-03-06T06:10:19.483Z,99194.23
2023-03-06T06:12:24.878Z,99193.78
2023-03-06T06:14:30.099Z,99195.67
2023-03-06T06:16:35.323Z,99192.16
2023-03-06T06:18:42.662Z,99198.45
2023-03-06T06:20:48.084Z,99199.34
2023-03-06T06:22:53.480Z,99198.79
2023-03-06T06:24:58.867Z,99200.35
2023-03-06T06:27:05.414Z,99200.59
2023-03-06T06:29:10.630Z,99195.8
2023-03-06T06:31:16.336Z,99201.52
2023-03-06T06:33:21.937Z,99200.05
2023-03-06T06:35:27.366Z,99195.76
2023-03-06T06:37:32.875Z,99199.97
2023-03-06T06:39:38.702Z,99195.11
2023-03-06T06:42:21.040Z,99190.81
2023-03-06T06:44:43.107Z,99191.32
2023-03-06T06:47:22.661Z,99193.26
2023-03-06T06:49:30.193Z,99193.59
2023-03-06T06:51:35.552Z,99184.27
2023-03-06T06:53:40.728Z,99187.42
2023-03-06T06:55:46.318Z,99189.33
2023-03-06T06:57:51.731Z,99187.44
2023-03-06T06:59:57.322Z,99187.5
2023-03-06T07:02:02.686Z,99183.71
2023-03-06T07:04:08.049Z,99182.14
2023-03-06T07:06:14.204Z,99178.77
2023-03-06T07:08:19.741Z,99178.13
2023-03-06T07:10:25.087Z,99178.92
2023-03-06T07:12:30.483Z,99182.16
2023-03-06T07:14:36.169Z,99178.32
2023-03-06T07:16:41.359Z,99185.09
2023-03-06T07:18:46.829Z,99177.78
2023-03-06T07:20:52.088Z,99185.83
2023-03-06T07:22:57.439Z,99180.2
2023-03-06T07:25:02.727Z,99179.33
2023-03-06T07:27:08.568Z,99178.25
2023-03-06T07:29:13.900Z,99180.69
2023-03-06T07:31:19.432Z,99175.52
2023-03-06T07:33:24.879Z,99175.02
2023-03-06T07:35:30.719Z,99170.33
2023-03-06T07:37:36.113Z,99170.38
2023-03-06T07:39:41.552Z,99163.17
2023-03-06T07:41:46.716Z,99166.89
2023-03-06T07:43:52.160Z,99171.17
2023-03-06T07:45:57.447Z,99168.15
2023-03-06T07:48:04.974Z,99169.74
2023-03-06T07:50:11.055Z,99170.38
2023-03-06T07:52:19.508Z,99172.09
2023-03-06T07:54:24.644Z,99166.88
2023-03-06T07:56:29.915Z,99167.76
2023-03-06T07:58:35.111Z,99165.77
2023-03-06T08:00:40.449Z,99168.92
2023-03-06T08:02:46.272Z,99167.73
2023-03-06T08:04:51.829Z,99164.91
2023-03-06T08:06:57.194Z,99164.06
2023-03-06T08:09:02.855Z,99169.89
2023-03-06T08:11:08.174Z,99167.17
2023-03-06T08:13:13.331Z,99166.05
2023-03-06T08:15:18.716Z,99167.05
2023-03-06T08:17:24.133Z,99168.35
2023-03-06T08:19:29.484Z,99160.3
2023-03-06T08:21:34.978Z,99162.2
2023-03-06T08:23:40.585Z,99161.47
2023-03-06T08:25:46.064Z,99159.06
2023-03-06T08:27:51.473Z,99166.02
2023-03-06T08:29:57.392Z,99162.94
2023-03-06T08:32:03.011Z,99152.52
2023-03-06T08:34:08.363Z,99154.95
2023-03-06T08:36:13.913Z,99153.42
2023-03-06T08:38:19.379Z,99154.38
2023-03-06T08:40:25.114Z,99149.88
2023-03-06T08:42:31.117Z,99150.42
2023-03-06T08:44:37.100Z,99152.89
2023-03-06T08:46:43.031Z,99150
2023-03-06T08:48:48.234Z,99148.53
2023-03-06T08:50:53.790Z,99146.7
2023-03-06T08:53:02.677Z,99143.06
2023-03-06T08:55:08.028Z,99143.16
2023-03-06T08:57:13.391Z,99140.55
2023-03-06T08:59:21.711Z,99140.51
2023-03-06T09:01:27.318Z,99143.19
2023-03-06T09:03:32.770Z,99140.66
2023-03-06T09:05:38.305Z,99140.44
2023-03-06T09:07:43.504Z,99137.58
2023-03-06T09:09:48.795Z,99137.56
2023-03-06T09:11:53.992Z,99136.77
2023-03-06T09:13:59.860Z,99140.63
2023-03-06T09:16:05.390Z,99140.63
2023-03-06T09:18:11.087Z,99141.63
2023-03-06T09:20:16.763Z,99140.85
2023-03-06T09:22:22.416Z,99136.19
2023-03-06T09:24:27.662Z,99141.3
2023-03-06T09:26:47.630Z,99137.61
2023-03-06T09:28:56.029Z,99133.45
2023-03-06T09:31:01.522Z,99138.42
2023-03-06T09:33:07.495Z,99130.47
2023-03-06T09:35:12.818Z,99132.94
2023-03-06T09:37:18.750Z,99133.17
2023-03-06T09:39:24.320Z,99124.81
2023-03-06T09:41:30.105Z,99126.63
2023-03-06T09:43:36.557Z,99133.34
2023-03-06T09:45:42.150Z,99127.5
2023-03-06T09:47:47.846Z,99128.23
2023-03-06T09:49:53.301Z,99129.83
2023-03-06T09:51:58.746Z,99128.08
2023-03-06T09:54:04.094Z,99123.33
2023-03-06T09:56:09.330Z,99123.38
2023-03-06T09:58:14.927Z,99121.31
2023-03-06T10:00:20.338Z,99118.8
2023-03-06T10:02:26.957Z,99117.17
2023-03-06T10:04:33.301Z,99115.97
2023-03-06T10:06:38.970Z,99114.5
2023-03-06T10:08:44.141Z,99115.16
2023-03-06T10:10:49.612Z,99116.73
2023-03-06T10:12:54.791Z,99111.56
2023-03-06T10:15:01.297Z,99114.89
2023-03-06T10:17:06.912Z,99111.91
2023-03-06T10:19:12.257Z,99110.48
2023-03-06T10:21:20.583Z,99110.07
2023-03-06T10:23:26.049Z,99112.15
2023-03-06T10:25:31.849Z,99107.56
2023-03-06T10:27:38.211Z,99108.53
2023-03-06T10:30:01.976Z,99110.14
2023-03-06T10:32:08.702Z,99110.35
2023-03-06T10:34:14.544Z,99105.59
2023-03-06T10:36:19.910Z,99102.94
2023-03-06T10:38:25.248Z,99100.97
2023-03-06T10:40:30.601Z,99096.2
2023-03-06T10:42:35.880Z,99095.38
2023-03-06T10:44:41.333Z,99089.29
2023-03-06T10:46:46.887Z,99085.78
2023-03-06T10:48:52.446Z,99092.98
2023-03-06T10:50:58.642Z,99086.35
2023-03-06T10:53:21.008Z,99077.14
2023-03-06T10:55:26.209Z,99079.81
2023-03-06T10:57:31.381Z,99070.68
2023-03-06T10:59:36.629Z,99069.63
2023-03-06T11:01:42.104Z,99069.64
2023-03-06T11:03:47.665Z,99072.81
2023-03-06T11:05:53.048Z,99064.6
2023-03-06T11:07:58.418Z,99064.88
2023-03-06T11:10:03.860Z,99060.24
2023-03-06T11:12:09.236Z,99055.66
2023-03-06T11:14:14.629Z,99053.09
2023-03-06T11:16:19.931Z,99047.09
2023-03-06T11:18:28.770Z,99051.45
2023-03-06T11:20:52.252Z,99045.84
2023-03-06T11:22:57.933Z,99036.96
2023-03-06T11:25:03.746Z,99037.45
2023-03-06T11:27:08.980Z,99033.41
2023-03-06T11:29:14.443Z,99033.93
2023-03-06T11:31:20.045Z,99026.92
2023-03-06T11:33:25.255Z,99026.91
2023-03-06T11:35:30.384Z,99021.81
2023-03-06T11:37:35.717Z,99021.52
2023-03-06T11:39:40.870Z,99018.31
2023-03-06T11:41:46.114Z,99012.34
2023-03-06T11:43:51.228Z,99007.55
2023-03-06T11:45:56.470Z,99006.7
2023-03-06T11:48:01.975Z,99003.16
2023-03-06T11:50:07.196Z,99002.41
2023-03-06T11:52:12.579Z,98997.08
2023-03-06T11:54:18.725Z,99000.84
2023-03-06T11:56:24.079Z,99002
2023-03-06T11:58:29.548Z,98997.56
2023-03-06T12:00:34.948Z,98997.23
2023-03-06T12:02:40.264Z,98999.84
2023-03-06T12:04:45.523Z,98997.48
2023-03-06T12:06:51.950Z,98998.39
2023-03-06T12:08:57.244Z,98995.39
2023-03-06T12:11:02.414Z,98990.63
2023-03-06T12:13:07.789Z,98988.07
2023-03-06T12:15:13.231Z,98988.16
2023-03-06T12:17:18.585Z,98986.48
2023-03-06T12:19:23.939Z,98985.66
2023-03-06T12:21:29.076Z,98983.53
2023-03-06T12:23:35.436Z,98985.1
2023-03-06T12:25:40.770Z,98979.62
2023-03-06T12:27:45.967Z,98977.54
2023-03-06T12:29:51.516Z,98973.72
2023-03-06T12:31:56.946Z,98968.23
2023-03-06T12:34:02.652Z,98965.44
2023-03-06T12:36:07.956Z,98965.95
2023-03-06T12:38:14.453Z,98966.16
2023-03-06T12:40:20.197Z,98965.2
2023-03-06T12:42:25.982Z,98965.16
2023-03-06T12:44:32.326Z,98957.34
2023-03-06T12:46:37.611Z,98961.89
2023-03-06T12:48:43.064Z,98955.27
2023-03-06T12:50:48.321Z,98957.05
2023-03-06T12:52:53.682Z,98959.5
2023-03-06T12:54:59.045Z,98958.78
2023-03-06T12:57:04.683Z,98956.48
2023-03-06T12:59:10.018Z,98956.39
2023-03-06T13:01:15.303Z,98950.85
2023-03-06T13:03:20.850Z,98949.8
2023-03-06T13:05:26.102Z,98948.52
2023-03-06T13:07:31.260Z,98951.65
2023-03-06T13:09:36.518Z,98947.45
2023-03-06T13:11:41.777Z,98949.7
2023-03-06T13:13:47.309Z,98945.08
2023-03-06T13:15:52.640Z,98943.8
2023-03-06T13:17:57.840Z,98941.16
2023-03-06T13:20:03.073Z,98940.22
2023-03-06T13:22:08.650Z,98939.41
2023-03-06T13:24:13.963Z,98941.89
2023-03-06T13:26:19.884Z,98936.23
2023-03-06T13:28:25.352Z,98932.39
2023-03-06T13:30:31.284Z,98931.11
2023-03-06T13:32:36.949Z,98929.38
2023-03-06T13:34:42.223Z,98925.61
2023-03-06T13:36:48.266Z,98921.17
2023-03-06T13:38:54.619Z,98921.92
2023-03-06T13:41:00.639Z,98917.05
2023-03-06T13:43:07.035Z,98916.52
2023-03-06T13:45:12.328Z,98917.13
2023-03-06T13:47:17.503Z,98921.83
2023-03-06T13:49:22.990Z,98918.28
2023-03-06T13:51:28.340Z,98918.3
2023-03-06T13:53:33.756Z,98912.82
2023-03-06T13:55:39.921Z,98910.38
2023-03-06T13:57:46.147Z,98912.63
2023-03-06T14:00:08.505Z,98909.58
2023-03-06T14:02:15.026Z,98909.03
2023-03-06T14:04:22.246Z,98913.01
2023-03-06T14:06:28.717Z,98910.08
2023-03-06T14:08:34.475Z,98911.44
2023-03-06T14:10:41.361Z,98910.84
2023-03-06T14:12:47.464Z,98905.33
2023-03-06T14:14:53.895Z,98903.48
2023-03-06T14:17:06.490Z,98903.78
2023-03-06T14:19:12.868Z,98901.6
2023-03-06T14:21:19.383Z,98903.63
2023-03-06T14:23:26.028Z,98901.34
2023-03-06T14:25:32.350Z,98897.47
2023-03-06T14:27:41.691Z,98893.61
2023-03-06T14:29:49.174Z,98892.3
2023-03-06T14:31:55.162Z,98896.92
2023-03-06T14:34:02.500Z,98894.83
2023-03-06T14:36:12.118Z,98889.89
2023-03-06T14:38:18.702Z,98890.25
2023-03-06T14:40:24.976Z,98889.08
2023-03-06T14:42:31.206Z,98885.19
2023-03-06T14:44:37.806Z,98887.41
2023-03-06T14:46:43.835Z,98883.78
2023-03-06T14:48:50.246Z,98889.17
2023-03-06T14:50:56.605Z,98891.7
2023-03-06T14:53:03.746Z,98897.83
2023-03-06T14:55:10.140Z,98891.42
2023-03-06T14:57:16.523Z,98898.66
2023-03-06T14:59:23.049Z,98899.39
2023-03-06T15:01:29.445Z,98899.13
2023-03-06T15:03:35.498Z,98907.34
2023-03-06T15:05:41.494Z,98896.52
2023-03-06T15:07:47.662Z,98900.19
2023-03-06T15:09:53.748Z,98904.08
2023-03-06T15:12:00.168Z,98906.34
2023-03-06T15:14:06.750Z,98904.42
2023-03-06T15:16:13.408Z,98907.91
2023-03-06T15:18:20.174Z,98909.52
2023-03-06T15:20:26.501Z,98904.11
2023-03-06T15:22:33.814Z,98910.25
2023-03-06T15:24:40.531Z,98905.61
2023-03-06T15:26:46.986Z,98913.31
2023-03-06T15:29:08.882Z,98913.63
2023-03-06T15:31:16.960Z,98912.56
2023-03-06T15:33:23.750Z,98915.06
2023-03-06T15:35:31.218Z,98912.13
2023-03-06T15:37:40.762Z,98911.44
2023-03-06T15:39:47.724Z,98912.36
2023-03-06T15:41:54.584Z,98908.46
2023-03-06T15:44:00.902Z,98910.17
2023-03-06T15:46:07.501Z,98908.73
2023-03-06T15:48:14.124Z,98910.3
2023-03-06T15:50:22.031Z,98909.78
2023-03-06T15:52:28.680Z,98911.8
2023-03-06T15:54:35.360Z,98914.89
2023-03-06T15:56:41.857Z,98912.86
2023-03-06T15:58:48.299Z,98913.81
2023-03-06T16:00:55.195Z,98915.47
2023-03-06T16:03:01.574Z,98924.11
2023-03-06T16:05:08.576Z,98919.53
2023-03-06T16:07:15.513Z,98918.14
2023-03-06T16:09:23.780Z,98916.25
2023-03-06T16:11:43.861Z,98911.09
2023-03-06T16:13:51.942Z,98913.97
2023-03-06T16:15:59.881Z,98913.86
2023-03-06T16:18:06.769Z,98914.34
2023-03-06T16:20:14.043Z,98913.83
2023-03-06T16:22:22.016Z,98917.27
2023-03-06T16:24:29.514Z,98920.26
2023-03-06T16:26:36.597Z,98923.13
2023-03-06T16:28:44.221Z,98918.43
2023-03-06T16:30:51.014Z,98913.41
2023-03-06T16:32:58.422Z,98919.3
2023-03-06T16:35:05.558Z,98921.3
2023-03-06T16:37:13.935Z,98919.92
2023-03-06T16:39:23.939Z,98918.95
2023-03-06T16:41:31.135Z,98919.52
2023-03-06T16:43:39.421Z,98923.51
2023-03-06T16:45:48.293Z,98923.02
2023-03-06T16:47:58.300Z,98923.61
2023-03-06T16:50:07.399Z,98923.97
2023-03-06T16:52:14.913Z,98920.11
2023-03-06T16:54:21.547Z,98928.78
2023-03-06T16:56:28.493Z,98929.03
2023-03-06T16:58:35.839Z,98930.91
2023-03-06T17:00:42.300Z,98933.75
2023-03-06T17:02:52.931Z,98934.13
2023-03-06T17:05:00.174Z,98933.15
2023-03-06T17:07:09.012Z,98931.7
2023-03-06T17:09:18.743Z,98932.53
2023-03-06T17:11:26.867Z,98935.92
2023-03-06T17:13:34.215Z,98931.77
2023-03-06T17:15:41.546Z,98923.22
2023-03-06T17:17:49.189Z,98922.08
2023-03-06T17:19:57.126Z,98927.7
2023-03-06T17:22:05.360Z,98927.53
2023-03-06T17:24:14.348Z,98928.11
2023-03-06T17:26:21.098Z,98928.61
2023-03-06T17:28:28.316Z,98929.14
2023-03-06T17:30:36.586Z,98927.92
2023-03-06T17:32:45.050Z,98923.68
2023-03-06T17:34:52.932Z,98929.3
2023-03-06T17:37:00.950Z,98922.63
2023-03-06T17:39:11.671Z,98919.13
2023-03-06T17:41:17.352Z,98915.14
2023-03-06T17:43:26.153Z,98920.99
2023-03-06T17:45:33.791Z,98919.61
2023-03-06T17:47:44.640Z,98920.7
2023-03-06T17:49:56.208Z,98922.45
2023-03-06T17:52:04.725Z,98926.13
2023-03-06T17:54:13.494Z,98931.91
2023-03-06T17:56:24.848Z,98928.17
2023-03-06T17:58:39.393Z,98934.88
2023-03-06T18:00:50.154Z,98930.27
2023-03-06T18:02:58.968Z,98930.04
2023-03-06T18:05:14.321Z,98929.63
2023-03-06T18:07:26.417Z,98932.56
2023-03-06T18:09:35.329Z,98930.38
2023-03-06T18:11:44.467Z,98937.04
2023-03-06T18:13:52.744Z,98933.09
2023-03-06T18:16:02.487Z,98930.8
2023-03-06T18:18:11.075Z,98931.96
2023-03-06T18:20:19.220Z,98932.48
2023-03-06T18:22:27.433Z,98934.52
2023-03-06T18:24:37.965Z,98936.52
2023-03-06T18:26:50.108Z,98935.58
2023-03-06T18:29:00.560Z,98932.14
2023-03-06T18:31:09.959Z,98942.75
2023-03-06T18:33:18.131Z,98938.03
2023-03-06T18:35:31.601Z,98938.2
2023-03-06T18:37:41.925Z,98938.92
2023-03-06T18:39:55.749Z,98937.22
2023-03-06T18:42:05.474Z,98944.02
2023-03-06T18:44:15.369Z,98936.39
2023-03-06T18:46:28.372Z,98928.53
2023-03-06T18:48:36.544Z,98928.34
2023-03-06T18:50:48.554Z,98928.15
2023-03-06T18:53:00.348Z,98928.88
2023-03-06T18:55:13.258Z,98933.15
2023-03-06T18:57:24.316Z,98932.53
2023-03-06T18:59:37.344Z,98936.03
2023-03-06T19:01:51.708Z,98932.97
2023-03-06T19:04:02.724Z,98929.47
2023-03-06T19:06:15.875Z,98924.42
2023-03-06T19:08:25.243Z,98924.23
2023-03-06T19:10:33.968Z,98918.89
2023-03-06T19:12:50.661Z,98922.95
2023-03-06T19:15:08.761Z,98917.17
2023-03-06T19:17:26.891Z,98915.38
2023-03-06T19:19:38.395Z,98914.92
2023-03-06T19:21:48.733Z,98915.73
2023-03-06T19:23:57.553Z,98920.3
2023-03-06T19:26:07.801Z,98907.57
2023-03-06T19:28:18.314Z,98912.05
2023-03-06T19:30:31.902Z,98911.47
2023-03-06T19:32:44.703Z,98914.27
2023-03-06T19:34:58.415Z,98919.66
2023-03-06T19:37:10.174Z,98920.13
2023-03-06T19:39:24.039Z,98916.75
2023-03-06T19:41:37.284Z,98913.59
2023-03-06T19:43:50.122Z,98906.67
2023-03-06T19:46:02.081Z,98906.95
2023-03-06T19:48:12.317Z,98899.79
2023-03-06T19:50:29.027Z,98899.14
2023-03-06T19:52:43.032Z,98903.23
2023-03-06T19:54:55.054Z,98898.11
2023-03-06T19:57:14.958Z,98894.94
2023-03-06T19:59:31.500Z,98898.03
2023-03-06T20:01:51.405Z,98897.63
2023-03-06T20:04:05.628Z,98901.05
2023-03-06T20:06:19.304Z,98904
2023-03-06T20:08:28.233Z,98900.96
2023-03-06T20:10:39.208Z,98896.3
2023-03-06T20:12:53.851Z,98896.3
2023-03-06T20:15:05.980Z,98895.43
2023-03-06T20:17:17.924Z,98900.63
2023-03-06T20:19:33.591Z,98894.58
2023-03-06T20:21:48.237Z,98900.03
2023-03-06T20:23:59.350Z,98893.58
2023-03-06T20:26:09.340Z,98890.16
2023-03-06T20:28:21.824Z,98884.22
2023-03-06T20:30:41.218Z,98888.61
2023-03-06T20:32:53.465Z,98889.91
2023-03-06T20:35:05.380Z,98887.72
2023-03-06T20:37:16.514Z,98883.83
2023-03-06T20:39:26.714Z,98894
2023-03-06T20:41:45.423Z,98891.8
2023-03-06T20:43:56.378Z,98891.06
2023-03-06T20:46:07.152Z,98890.58
2023-03-06T20:48:17.218Z,98889.15
2023-03-06T20:50:26.071Z,98889.67
2023-03-06T20:52:37.971Z,98891.13
2023-03-06T20:54:50.553Z,98884.84
2023-03-06T20:57:00.704Z,98885.89
2023-03-06T20:59:09.237Z,98884.14
2023-03-06T21:01:19.985Z,98883.89
2023-03-06T21:03:28.512Z,98886.34
2023-03-06T21:05:36.261Z,98886.91
2023-03-06T21:07:44.826Z,98886.5
2023-03-06T21:09:53.554Z,98888.47
2023-03-06T21:12:01.393Z,98888.31
2023-03-06T21:14:12.805Z,98888.91
2023-03-06T21:16:21.030Z,98887.03
2023-03-06T21:18:30.456Z,98885.78
2023-03-06T21:20:38.799Z,98891.6
2023-03-06T21:22:46.171Z,98890.44
2023-03-06T21:24:54.544Z,98888.12
2023-03-06T21:27:02.891Z,98891.45
2023-03-06T21:29:10.866Z,98889.1
2023-03-06T21:31:16.326Z,98890.28
2023-03-06T21:33:22.761Z,98888.49
2023-03-06T21:35:32.494Z,98887.2
2023-03-06T21:37:39.045Z,98885.67
2023-03-06T21:39:46.173Z,98889.38
2023-03-06T21:41:52.456Z,98890.15
2023-03-06T21:43:58.351Z,98892.19
2023-03-06T21:46:04.644Z,98890.96
2023-03-06T21:48:10.283Z,98892.59
2023-03-06T21:50:16.126Z,98887.95
2023-03-06T21:52:21.907Z,98885.96
2023-03-06T21:54:32.952Z,98889.38
2023-03-06T21:56:38.500Z,98883.03
2023-03-06T21:58:44.380Z,98881.61
2023-03-06T22:00:50.865Z,98885.06
2023-03-06T22:02:56.340Z,98884.58
2023-03-06T22:05:02.023Z,98888.15
2023-03-06T22:07:07.310Z,98885.47
2023-03-06T22:09:13.425Z,98887.94
2023-03-06T22:11:19.165Z,98883.55
2023-03-06T22:13:24.887Z,98888.88
2023-03-06T22:15:30.466Z,98888.68
2023-03-06T22:17:35.875Z,98893.3
2023-03-06T22:19:41.121Z,98893.39
2023-03-06T22:21:46.876Z,98898.51
2023-03-06T22:23:52.511Z,98899.13
2023-03-06T22:25:58.019Z,98903.59
2023-03-06T22:28:03.166Z,98905.18
2023-03-06T22:30:08.911Z,98904.33
2023-03-06T22:32:14.905Z,98909.56
2023-03-06T22:34:20.532Z,98909.41
2023-03-06T22:36:26.361Z,98909.53
2023-03-06T22:38:31.896Z,98911.11
2023-03-06T22:40:37.540Z,98914.13
2023-03-06T22:42:42.631Z,98916.84
2023-03-06T22:44:48.683Z,98908.03
2023-03-06T22:46:54.352Z,98908.4
2023-03-06T22:49:00.116Z,98910.47
2023-03-06T22:51:05.637Z,98912.3
2023-03-06T22:53:11.311Z,98916.92
2023-03-06T22:55:17.161Z,98920.38
2023-03-06T22:57:22.809Z,98917.25
2023-03-06T22:59:28.576Z,98916.03
2023-03-06T23:01:33.976Z,98911.16
2023-03-06T23:03:39.617Z,98921.08
2023-03-06T23:05:45.085Z,98916.93
2023-03-06T23:07:50.670Z,98923.02
2023-03-06T23:09:56.523Z,98926.47
2023-03-06T23:12:01.912Z,98923.83
2023-03-06T23:14:07.724Z,98919.9
2023-03-06T23:16:13.516Z,98922.17
2023-03-06T23:18:19.022Z,98921.69
2023-03-06T23:20:24.620Z,98923.95
2023-03-06T23:22:29.916Z,98927.97
2023-03-06T23:24:37.547Z,98923.72
2023-03-06T23:26:42.716Z,98927.05
2023-03-06T23:28:48.463Z,98928.19
2023-03-06T23:30:53.872Z,98929.33
2023-03-06T23:32:59.475Z,98929.89
2023-03-06T23:35:04.984Z,98933.5
2023-03-06T23:37:10.544Z,98936.75
2023-03-06T23:39:15.978Z,98938.21
2023-03-06T23:41:21.482Z,98937.07
2023-03-06T23:43:26.794Z,98937.64
2023-03-06T23:45:32.166Z,98937.52
2023-03-06T23:47:38.066Z,98938.05
2023-03-06T23:49:43.564Z,98940.84
2023-03-06T23:51:49.429Z,98936.77
2023-03-06T23:53:55.042Z,98940.8
2023-03-06T23:56:00.746Z,98940.22
2023-03-06T23:58:05.915Z,98936.47
